sensor_id;sensor_type;location;lat;lon;timestamp;temperature;humidity
5286;DHT22;2665;53.112;7.358;2023-02-15T00:01:44;0.40;1.00
5286;DHT22;2665;53.112;7.358;2023-02-15T00:04:13;0.40;1.00
5286;DHT22;2665;53.112;7.358;2023-02-15T00:06:40;0.40;1.00
5286;DHT22;2665;53.112;7.358;2023-02-15T00:09:05;0.40;1.00
5286;DHT22;2665;53.112;7.358;2023-02-15T00:11:31;0.40;1.00
5286;DHT22;2665;53.112;7.358;2023-02-15T00:14:08;0.50;1.00
5286;DHT22;2665;53.112;7.358;2023-02-15T00:16:34;0.50;1.00
5286;DHT22;2665;53.112;7.358;2023-02-15T00:19:00;0.50;1.00
5286;DHT22;2665;53.112;7.358;2023-02-15T00:21:30;0.50;1.00
5286;DHT22;2665;53.112;7.358;2023-02-15T00:23:57;0.60;1.00
5286;DHT22;2665;53.112;7.358;2023-02-15T00:26:22;0.60;1.00
5286;DHT22;2665;53.112;7.358;2023-02-15T00:28:48;0.60;1.00
5286;DHT22;2665;53.112;7.358;2023-02-15T00:31:14;0.70;9.70
5286;DHT22;2665;53.112;7.358;2023-02-15T00:33:39;0.70;9.70
5286;DHT22;2665;53.112;7.358;2023-02-15T00:36:07;0.80;9.60
5286;DHT22;2665;53.112;7.358;2023-02-15T00:38:34;0.90;10.60
5286;DHT22;2665;53.112;7.358;2023-02-15T00:41:02;1.00;1.00
5286;DHT22;2665;53.112;7.358;2023-02-15T00:43:30;1.00;1.00
5286;DHT22;2665;53.112;7.358;2023-02-15T00:45:56;1.00;1.00
5286;DHT22;2665;53.112;7.358;2023-02-15T00:48:21;1.00;1.00
5286;DHT22;2665;53.112;7.358;2023-02-15T00:50:52;1.00;1.00
5286;DHT22;2665;53.112;7.358;2023-02-15T00:53:18;0.90;1.00
5286;DHT22;2665;53.112;7.358;2023-02-15T00:55:44;0.80;1.00
5286;DHT22;2665;53.112;7.358;2023-02-15T00:58:10;0.80;1.00
5286;DHT22;2665;53.112;7.358;2023-02-15T01:00:37;0.70;1.00
5286;DHT22;2665;53.112;7.358;2023-02-15T01:03:04;0.60;1.00
5286;DHT22;2665;53.112;7.358;2023-02-15T01:05:30;0.50;1.00
5286;DHT22;2665;53.112;7.358;2023-02-15T01:07:56;0.40;1.00
5286;DHT22;2665;53.112;7.358;2023-02-15T05:54:24;2.20;99.90
5286;DHT22;2665;53.112;7.358;2023-02-15T05:56:50;2.20;99.90
5286;DHT22;2665;53.112;7.358;2023-02-15T05:59:15;2.20;1.00
5286;DHT22;2665;53.112;7.358;2023-02-15T06:01:41;2.20;99.90
5286;DHT22;2665;53.112;7.358;2023-02-15T06:04:06;2.20;1.00
5286;DHT22;2665;53.112;7.358;2023-02-15T06:06:32;2.30;1.00
5286;DHT22;2665;53.112;7.358;2023-02-15T06:08:59;2.30;99.90
5286;DHT22;2665;53.112;7.358;2023-02-15T06:11:25;2.30;1.00
5286;DHT22;2665;53.112;7.358;2023-02-15T06:13:51;2.30;1.00
5286;DHT22;2665;53.112;7.358;2023-02-15T06:16:16;2.20;50.20
5286;DHT22;2665;53.112;7.358;2023-02-15T06:18:42;2.10;1.00
5286;DHT22;2665;53.112;7.358;2023-02-15T06:21:08;2.10;99.90
5286;DHT22;2665;53.112;7.358;2023-02-15T06:23:34;2.00;9.10
5286;DHT22;2665;53.112;7.358;2023-02-15T06:25:59;1.90;99.90
5286;DHT22;2665;53.112;7.358;2023-02-15T06:28:25;1.90;99.90
5286;DHT22;2665;53.112;7.358;2023-02-15T06:30:51;1.80;99.90
5286;DHT22;2665;53.112;7.358;2023-02-15T06:33:17;1.70;1.00
5286;DHT22;2665;53.112;7.358;2023-02-15T06:35:43;1.60;1.00
5286;DHT22;2665;53.112;7.358;2023-02-15T06:38:09;1.60;1.00
5286;DHT22;2665;53.112;7.358;2023-02-15T06:40:35;1.50;1.00
5286;DHT22;2665;53.112;7.358;2023-02-15T06:43:01;1.50;1.00
5286;DHT22;2665;53.112;7.358;2023-02-15T06:45:26;1.40;6.30
5286;DHT22;2665;53.112;7.358;2023-02-15T06:47:52;1.40;33.40
5286;DHT22;2665;53.112;7.358;2023-02-15T06:50:17;1.40;99.90
5286;DHT22;2665;53.112;7.358;2023-02-15T06:52:43;1.40;99.90
5286;DHT22;2665;53.112;7.358;2023-02-15T06:55:09;1.40;1.00
5286;DHT22;2665;53.112;7.358;2023-02-15T06:57:34;1.40;99.90
5286;DHT22;2665;53.112;7.358;2023-02-15T07:00:00;1.40;1.00
5286;DHT22;2665;53.112;7.358;2023-02-15T07:02:26;1.40;99.90
5286;DHT22;2665;53.112;7.358;2023-02-15T07:04:52;1.50;1.00
5286;DHT22;2665;53.112;7.358;2023-02-15T07:07:17;1.50;99.90
5286;DHT22;2665;53.112;7.358;2023-02-15T07:09:43;1.50;99.90
5286;DHT22;2665;53.112;7.358;2023-02-15T07:12:09;1.60;99.90
5286;DHT22;2665;53.112;7.358;2023-02-15T07:14:53;1.70;99.90
5286;DHT22;2665;53.112;7.358;2023-02-15T07:17:19;1.70;1.00
5286;DHT22;2665;53.112;7.358;2023-02-15T07:19:44;1.80;1.00
5286;DHT22;2665;53.112;7.358;2023-02-15T07:22:10;1.80;1.00
5286;DHT22;2665;53.112;7.358;2023-02-15T07:24:35;1.90;1.00
5286;DHT22;2665;53.112;7.358;2023-02-15T07:27:01;1.90;1.00
5286;DHT22;2665;53.112;7.358;2023-02-15T07:29:27;2.00;1.00
5286;DHT22;2665;53.112;7.358;2023-02-15T07:31:53;2.00;1.00
5286;DHT22;2665;53.112;7.358;2023-02-15T07:34:18;2.00;1.00
5286;DHT22;2665;53.112;7.358;2023-02-15T07:36:44;2.00;99.90
5286;DHT22;2665;53.112;7.358;2023-02-15T07:39:10;2.00;1.00
5286;DHT22;2665;53.112;7.358;2023-02-15T07:41:36;2.00;1.00
5286;DHT22;2665;53.112;7.358;2023-02-15T07:44:01;2.00;99.90
5286;DHT22;2665;53.112;7.358;2023-02-15T07:46:27;2.10;1.00
5286;DHT22;2665;53.112;7.358;2023-02-15T07:48:53;2.10;1.00
5286;DHT22;2665;53.112;7.358;2023-02-15T07:51:19;2.10;99.90
5286;DHT22;2665;53.112;7.358;2023-02-15T07:53:45;2.20;99.90
5286;DHT22;2665;53.112;7.358;2023-02-15T07:56:13;2.30;1.00
5286;DHT22;2665;53.112;7.358;2023-02-15T07:58:39;2.30;1.70
5286;DHT22;2665;53.112;7.358;2023-02-15T08:03:46;2.40;1.00
5286;DHT22;2665;53.112;7.358;2023-02-15T08:06:12;2.50;1.00
5286;DHT22;2665;53.112;7.358;2023-02-15T08:08:39;2.60;99.90
5286;DHT22;2665;53.112;7.358;2023-02-15T08:13:52;2.80;1.00
5286;DHT22;2665;53.112;7.358;2023-02-15T08:18:50;3.00;99.90
5286;DHT22;2665;53.112;7.358;2023-02-15T08:21:16;3.10;99.90
5286;DHT22;2665;53.112;7.358;2023-02-15T08:23:42;3.20;1.00
5286;DHT22;2665;53.112;7.358;2023-02-15T08:26:07;3.30;1.00
5286;DHT22;2665;53.112;7.358;2023-02-15T08:28:33;3.40;99.90
5286;DHT22;2665;53.112;7.358;2023-02-15T08:31:12;3.40;1.00
5286;DHT22;2665;53.112;7.358;2023-02-15T08:33:39;3.50;1.00
5286;DHT22;2665;53.112;7.358;2023-02-15T08:36:11;3.50;1.00
5286;DHT22;2665;53.112;7.358;2023-02-15T08:38:37;3.60;1.00
5286;DHT22;2665;53.112;7.358;2023-02-15T08:43:43;3.80;1.00
5286;DHT22;2665;53.112;7.358;2023-02-15T08:46:10;4.00;1.00
5286;DHT22;2665;53.112;7.358;2023-02-15T08:48:36;4.10;99.90
5286;DHT22;2665;53.112;7.358;2023-02-15T08:51:23;4.30;1.00
5286;DHT22;2665;53.112;7.358;2023-02-15T08:53:54;4.40;1.00
5286;DHT22;2665;53.112;7.358;2023-02-15T08:56:24;4.40;99.90
5286;DHT22;2665;53.112;7.358;2023-02-15T08:58:50;4.50;1.00
5286;DHT22;2665;53.112;7.358;2023-02-15T09:01:19;4.60;1.00
5286;DHT22;2665;53.112;7.358;2023-02-15T09:03:47;4.70;1.00
5286;DHT22;2665;53.112;7.358;2023-02-15T09:06:14;4.80;1.00
5286;DHT22;2665;53.112;7.358;2023-02-15T09:08:40;5.00;1.00
5286;DHT22;2665;53.112;7.358;2023-02-15T09:11:07;5.50;1.00
5286;DHT22;2665;53.112;7.358;2023-02-15T09:13:34;6.30;1.00
5286;DHT22;2665;53.112;7.358;2023-02-15T09:16:02;6.90;1.00
5286;DHT22;2665;53.112;7.358;2023-02-15T09:18:30;7.50;1.00
5286;DHT22;2665;53.112;7.358;2023-02-15T09:20:56;7.80;99.90
5286;DHT22;2665;53.112;7.358;2023-02-15T09:23:22;8.20;1.00
5286;DHT22;2665;53.112;7.358;2023-02-15T09:25:47;8.50;1.00
5286;DHT22;2665;53.112;7.358;2023-02-15T09:28:13;8.90;1.00
5286;DHT22;2665;53.112;7.358;2023-02-15T09:30:38;8.90;51.60
5286;DHT22;2665;53.112;7.358;2023-02-15T09:33:04;8.90;1.00
5286;DHT22;2665;53.112;7.358;2023-02-15T09:35:30;9.10;52.20
5286;DHT22;2665;53.112;7.358;2023-02-15T09:37:55;9.60;99.90
5286;DHT22;2665;53.112;7.358;2023-02-15T09:40:21;9.80;1.00
5286;DHT22;2665;53.112;7.358;2023-02-15T09:43:19;9.90;1.00
5286;DHT22;2665;53.112;7.358;2023-02-15T09:49:11;9.80;99.90
5286;DHT22;2665;53.112;7.358;2023-02-15T09:51:52;9.20;99.90
5286;DHT22;2665;53.112;7.358;2023-02-15T09:57:23;8.00;99.90
5286;DHT22;2665;53.112;7.358;2023-02-15T10:06:12;7.10;99.90
5286;DHT22;2665;53.112;7.358;2023-02-15T10:08:58;6.90;1.00
5286;DHT22;2665;53.112;7.358;2023-02-15T10:28:06;7.70;1.00
5286;DHT22;2665;53.112;7.358;2023-02-15T10:30:51;7.90;1.00
5286;DHT22;2665;53.112;7.358;2023-02-15T10:46:53;9.20;99.90
5286;DHT22;2665;53.112;7.358;2023-02-15T10:52:17;9.20;99.90
5286;DHT22;2665;53.112;7.358;2023-02-15T10:55:00;9.20;99.90
5286;DHT22;2665;53.112;7.358;2023-02-15T10:57:56;9.30;99.90
5286;DHT22;2665;53.112;7.358;2023-02-15T11:00:49;9.50;99.90
5286;DHT22;2665;53.112;7.358;2023-02-15T11:03:29;9.60;99.90
5286;DHT22;2665;53.112;7.358;2023-02-15T11:06:07;9.70;99.90
5286;DHT22;2665;53.112;7.358;2023-02-15T11:08:46;9.80;99.90
5286;DHT22;2665;53.112;7.358;2023-02-15T11:17:02;10.30;99.90
5286;DHT22;2665;53.112;7.358;2023-02-15T11:19:35;10.30;99.90
5286;DHT22;2665;53.112;7.358;2023-02-15T11:22:04;11.00;99.90
5286;DHT22;2665;53.112;7.358;2023-02-15T11:24:31;11.60;99.90
5286;DHT22;2665;53.112;7.358;2023-02-15T11:27:24;12.00;99.90
5286;DHT22;2665;53.112;7.358;2023-02-15T11:30:13;12.50;99.90
5286;DHT22;2665;53.112;7.358;2023-02-15T11:32:40;12.90;99.90
5286;DHT22;2665;53.112;7.358;2023-02-15T11:38:13;13.30;87.60
5286;DHT22;2665;53.112;7.358;2023-02-15T11:40:48;13.80;79.40
5286;DHT22;2665;53.112;7.358;2023-02-15T11:43:26;14.40;83.80
5286;DHT22;2665;53.112;7.358;2023-02-15T11:45:54;15.20;82.20
5286;DHT22;2665;53.112;7.358;2023-02-15T11:48:20;16.10;52.10
5286;DHT22;2665;53.112;7.358;2023-02-15T11:50:46;16.20;69.90
5286;DHT22;2665;53.112;7.358;2023-02-15T11:53:20;16.20;56.40
5286;DHT22;2665;53.112;7.358;2023-02-15T11:55:48;16.00;49.30
5286;DHT22;2665;53.112;7.358;2023-02-15T11:58:47;15.80;45.20
5286;DHT22;2665;53.112;7.358;2023-02-15T12:01:22;15.70;42.80
5286;DHT22;2665;53.112;7.358;2023-02-15T12:04:02;15.70;43.80
5286;DHT22;2665;53.112;7.358;2023-02-15T12:06:34;16.20;46.90
5286;DHT22;2665;53.112;7.358;2023-02-15T12:09:17;16.50;46.60
5286;DHT22;2665;53.112;7.358;2023-02-15T12:11:44;16.70;44.40
5286;DHT22;2665;53.112;7.358;2023-02-15T12:14:12;16.60;43.80
5286;DHT22;2665;53.112;7.358;2023-02-15T12:16:49;16.80;43.00
5286;DHT22;2665;53.112;7.358;2023-02-15T12:21:51;17.20;44.90
5286;DHT22;2665;53.112;7.358;2023-02-15T12:24:23;17.00;43.50
5286;DHT22;2665;53.112;7.358;2023-02-15T12:27:17;16.30;39.50
5286;DHT22;2665;53.112;7.358;2023-02-15T12:30:06;15.80;35.00
5286;DHT22;2665;53.112;7.358;2023-02-15T12:32:49;15.50;33.10
5286;DHT22;2665;53.112;7.358;2023-02-15T12:35:28;15.80;36.60
5286;DHT22;2665;53.112;7.358;2023-02-15T12:37:57;16.60;40.70
5286;DHT22;2665;53.112;7.358;2023-02-15T12:40:27;17.20;42.30
5286;DHT22;2665;53.112;7.358;2023-02-15T12:42:53;17.50;41.40
5286;DHT22;2665;53.112;7.358;2023-02-15T12:50:34;17.80;40.60
5286;DHT22;2665;53.112;7.358;2023-02-15T12:58:22;16.90;35.00
5286;DHT22;2665;53.112;7.358;2023-02-15T13:01:04;17.10;36.90
5286;DHT22;2665;53.112;7.358;2023-02-15T13:03:35;17.10;37.10
5286;DHT22;2665;53.112;7.358;2023-02-15T13:06:04;17.10;37.10
5286;DHT22;2665;53.112;7.358;2023-02-15T13:08:49;17.60;40.10
5286;DHT22;2665;53.112;7.358;2023-02-15T13:11:22;17.80;40.80
5286;DHT22;2665;53.112;7.358;2023-02-15T13:13:56;18.10;39.60
5286;DHT22;2665;53.112;7.358;2023-02-15T13:16:36;18.20;41.50
5286;DHT22;2665;53.112;7.358;2023-02-15T13:19:09;18.30;58.90
5286;DHT22;2665;53.112;7.358;2023-02-15T13:21:39;17.80;38.00
5286;DHT22;2665;53.112;7.358;2023-02-15T13:24:23;17.50;35.60
5286;DHT22;2665;53.112;7.358;2023-02-15T13:26:50;17.10;34.50
5286;DHT22;2665;53.112;7.358;2023-02-15T13:29:26;16.90;34.70
5286;DHT22;2665;53.112;7.358;2023-02-15T13:31:54;16.50;32.90
5286;DHT22;2665;53.112;7.358;2023-02-15T13:39:48;15.60;21.40
5286;DHT22;2665;53.112;7.358;2023-02-15T13:42:41;15.60;31.90
5286;DHT22;2665;53.112;7.358;2023-02-15T13:48:17;16.10;35.30
5286;DHT22;2665;53.112;7.358;2023-02-15T13:51:10;15.90;33.20
5286;DHT22;2665;53.112;7.358;2023-02-15T13:59:43;15.20;33.90
5286;DHT22;2665;53.112;7.358;2023-02-15T14:07:46;14.20;30.20
5286;DHT22;2665;53.112;7.358;2023-02-15T14:24:46;13.50;32.20
5286;DHT22;2665;53.112;7.358;2023-02-15T14:27:27;13.50;33.30
5286;DHT22;2665;53.112;7.358;2023-02-15T14:30:00;13.50;33.70
5286;DHT22;2665;53.112;7.358;2023-02-15T14:32:40;13.50;35.30
5286;DHT22;2665;53.112;7.358;2023-02-15T14:35:17;13.40;35.00
5286;DHT22;2665;53.112;7.358;2023-02-15T14:45:52;13.00;34.60
5286;DHT22;2665;53.112;7.358;2023-02-15T14:48:26;12.90;35.10
5286;DHT22;2665;53.112;7.358;2023-02-15T14:50:54;12.70;34.30
5286;DHT22;2665;53.112;7.358;2023-02-15T14:58:37;12.30;35.40
5286;DHT22;2665;53.112;7.358;2023-02-15T15:01:08;12.20;51.10
5286;DHT22;2665;53.112;7.358;2023-02-15T15:03:35;12.10;35.70
5286;DHT22;2665;53.112;7.358;2023-02-15T15:06:03;12.10;35.10
5286;DHT22;2665;53.112;7.358;2023-02-15T15:08:36;12.00;35.80
5286;DHT22;2665;53.112;7.358;2023-02-15T15:13:58;11.80;35.10
5286;DHT22;2665;53.112;7.358;2023-02-15T15:18:53;11.60;36.30
5286;DHT22;2665;53.112;7.358;2023-02-15T15:39:00;11.30;40.00
5286;DHT22;2665;53.112;7.358;2023-02-15T15:41:35;11.20;39.40
5286;DHT22;2665;53.112;7.358;2023-02-15T15:49:08;11.00;40.70
5286;DHT22;2665;53.112;7.358;2023-02-15T15:51:39;10.90;41.20
5286;DHT22;2665;53.112;7.358;2023-02-15T15:54:05;10.90;41.40
5286;DHT22;2665;53.112;7.358;2023-02-15T15:56:34;10.80;43.30
5286;DHT22;2665;53.112;7.358;2023-02-15T15:59:04;10.70;42.30
5286;DHT22;2665;53.112;7.358;2023-02-15T16:01:38;10.60;43.30
5286;DHT22;2665;53.112;7.358;2023-02-15T16:04:05;10.60;43.60
5286;DHT22;2665;53.112;7.358;2023-02-15T16:06:36;10.50;45.60
5286;DHT22;2665;53.112;7.358;2023-02-15T16:09:17;10.50;45.90
5286;DHT22;2665;53.112;7.358;2023-02-15T16:11:44;10.40;46.80
5286;DHT22;2665;53.112;7.358;2023-02-15T16:16:54;10.30;47.50
5286;DHT22;2665;53.112;7.358;2023-02-15T16:19:41;10.20;48.50
5286;DHT22;2665;53.112;7.358;2023-02-15T16:22:20;10.20;48.40
5286;DHT22;2665;53.112;7.358;2023-02-15T16:27:40;10.10;49.60
5286;DHT22;2665;53.112;7.358;2023-02-15T16:32:44;10.00;51.30
5286;DHT22;2665;53.112;7.358;2023-02-15T16:35:18;9.90;52.30
5286;DHT22;2665;53.112;7.358;2023-02-15T16:37:44;9.80;52.60
5286;DHT22;2665;53.112;7.358;2023-02-15T16:40:28;9.80;54.50
5286;DHT22;2665;53.112;7.358;2023-02-15T16:43:04;9.70;56.10
5286;DHT22;2665;53.112;7.358;2023-02-15T16:45:32;9.70;57.90
5286;DHT22;2665;53.112;7.358;2023-02-15T16:48:00;9.60;59.20
5286;DHT22;2665;53.112;7.358;2023-02-15T16:50:36;9.70;61.70
5286;DHT22;2665;53.112;7.358;2023-02-15T16:53:02;9.70;63.70
5286;DHT22;2665;53.112;7.358;2023-02-15T16:55:35;9.60;65.90
5286;DHT22;2665;53.112;7.358;2023-02-15T16:58:02;9.60;66.70
5286;DHT22;2665;53.112;7.358;2023-02-15T17:00:33;9.60;66.90
5286;DHT22;2665;53.112;7.358;2023-02-15T17:05:40;9.50;69.10
5286;DHT22;2665;53.112;7.358;2023-02-15T17:13:31;9.40;70.60
5286;DHT22;2665;53.112;7.358;2023-02-15T17:18:27;9.30;75.50
5286;DHT22;2665;53.112;7.358;2023-02-15T17:20:57;9.30;74.50
5286;DHT22;2665;53.112;7.358;2023-02-15T17:23:32;9.20;76.00
5286;DHT22;2665;53.112;7.358;2023-02-15T17:26:00;9.20;77.20
5286;DHT22;2665;53.112;7.358;2023-02-15T17:28:30;9.20;77.70
5286;DHT22;2665;53.112;7.358;2023-02-15T17:30:57;9.20;78.50
5286;DHT22;2665;53.112;7.358;2023-02-15T17:33:36;9.10;78.70
5286;DHT22;2665;53.112;7.358;2023-02-15T17:36:11;9.10;80.20
5286;DHT22;2665;53.112;7.358;2023-02-15T17:38:40;9.00;81.90
5286;DHT22;2665;53.112;7.358;2023-02-15T17:41:06;9.00;83.00
5286;DHT22;2665;53.112;7.358;2023-02-15T17:43:32;9.00;85.50
5286;DHT22;2665;53.112;7.358;2023-02-15T17:45:59;8.90;88.90
5286;DHT22;2665;53.112;7.358;2023-02-15T17:48:33;8.90;79.50
5286;DHT22;2665;53.112;7.358;2023-02-15T17:51:04;8.90;78.50
5286;DHT22;2665;53.112;7.358;2023-02-15T17:53:30;8.80;81.30
5286;DHT22;2665;53.112;7.358;2023-02-15T17:55:56;8.90;83.60
5286;DHT22;2665;53.112;7.358;2023-02-15T17:58:22;8.80;86.30
5286;DHT22;2665;53.112;7.358;2023-02-15T18:03:42;8.70;87.70
5286;DHT22;2665;53.112;7.358;2023-02-15T18:06:27;8.70;89.40
5286;DHT22;2665;53.112;7.358;2023-02-15T18:09:14;8.60;90.40
5286;DHT22;2665;53.112;7.358;2023-02-15T18:11:58;8.60;90.90
5286;DHT22;2665;53.112;7.358;2023-02-15T18:14:24;8.60;91.40
5286;DHT22;2665;53.112;7.358;2023-02-15T18:16:50;8.60;91.60
5286;DHT22;2665;53.112;7.358;2023-02-15T18:19:22;8.50;91.20
5286;DHT22;2665;53.112;7.358;2023-02-15T18:21:49;8.40;90.80
5286;DHT22;2665;53.112;7.358;2023-02-15T18:24:22;8.40;91.60
5286;DHT22;2665;53.112;7.358;2023-02-15T18:26:49;8.30;92.30
5286;DHT22;2665;53.112;7.358;2023-02-15T18:29:15;8.20;94.50
5286;DHT22;2665;53.112;7.358;2023-02-15T18:31:41;8.20;96.20
5286;DHT22;2665;53.112;7.358;2023-02-15T18:34:27;8.20;97.30
5286;DHT22;2665;53.112;7.358;2023-02-15T18:36:53;8.10;98.60
5286;DHT22;2665;53.112;7.358;2023-02-15T18:39:36;8.10;99.90
5286;DHT22;2665;53.112;7.358;2023-02-15T18:42:04;8.10;99.90
5286;DHT22;2665;53.112;7.358;2023-02-15T18:44:30;8.00;99.90
5286;DHT22;2665;53.112;7.358;2023-02-15T18:46:56;8.00;99.90
5286;DHT22;2665;53.112;7.358;2023-02-15T18:49:22;8.00;99.90
5286;DHT22;2665;53.112;7.358;2023-02-15T18:51:47;8.00;99.90
5286;DHT22;2665;53.112;7.358;2023-02-15T18:54:21;7.90;99.90
5286;DHT22;2665;53.112;7.358;2023-02-15T18:56:52;7.90;99.90
5286;DHT22;2665;53.112;7.358;2023-02-15T18:59:20;7.90;99.90
5286;DHT22;2665;53.112;7.358;2023-02-15T19:01:46;7.80;99.90
5286;DHT22;2665;53.112;7.358;2023-02-15T19:04:11;7.80;99.90
5286;DHT22;2665;53.112;7.358;2023-02-15T19:06:40;7.80;99.90
5286;DHT22;2665;53.112;7.358;2023-02-15T19:09:13;7.80;99.90
5286;DHT22;2665;53.112;7.358;2023-02-15T19:11:39;7.80;99.90
5286;DHT22;2665;53.112;7.358;2023-02-15T19:14:05;7.80;99.90
5286;DHT22;2665;53.112;7.358;2023-02-15T19:16:35;7.70;99.90
5286;DHT22;2665;53.112;7.358;2023-02-15T19:19:01;7.80;99.90
5286;DHT22;2665;53.112;7.358;2023-02-15T19:21:29;7.70;99.90
5286;DHT22;2665;53.112;7.358;2023-02-15T19:23:58;7.70;99.90
5286;DHT22;2665;53.112;7.358;2023-02-15T19:26:25;7.70;99.90
5286;DHT22;2665;53.112;7.358;2023-02-15T19:28:51;7.70;99.90
5286;DHT22;2665;53.112;7.358;2023-02-15T19:31:18;7.70;99.90
5286;DHT22;2665;53.112;7.358;2023-02-15T19:33:44;7.70;99.90
5286;DHT22;2665;53.112;7.358;2023-02-15T19:36:17;7.60;99.90
5286;DHT22;2665;53.112;7.358;2023-02-15T19:38:47;7.70;99.90
5286;DHT22;2665;53.112;7.358;2023-02-15T19:41:19;7.70;99.90
5286;DHT22;2665;53.112;7.358;2023-02-15T19:43:50;7.70;99.90
5286;DHT22;2665;53.112;7.358;2023-02-15T19:46:20;7.70;99.90
5286;DHT22;2665;53.112;7.358;2023-02-15T19:48:47;7.70;99.90
5286;DHT22;2665;53.112;7.358;2023-02-15T19:51:13;7.70;99.90
5286;DHT22;2665;53.112;7.358;2023-02-15T19:53:39;7.70;99.90
5286;DHT22;2665;53.112;7.358;2023-02-15T19:56:10;7.70;99.90
5286;DHT22;2665;53.112;7.358;2023-02-15T19:58:36;7.70;99.90
5286;DHT22;2665;53.112;7.358;2023-02-15T20:01:02;7.70;99.90
5286;DHT22;2665;53.112;7.358;2023-02-15T20:03:27;7.70;99.90
5286;DHT22;2665;53.112;7.358;2023-02-15T20:05:53;7.70;99.90
5286;DHT22;2665;53.112;7.358;2023-02-15T20:08:21;7.70;99.90
5286;DHT22;2665;53.112;7.358;2023-02-15T20:10:47;7.60;99.90
5286;DHT22;2665;53.112;7.358;2023-02-15T20:13:17;7.60;99.90
5286;DHT22;2665;53.112;7.358;2023-02-15T20:15:44;7.60;99.90
5286;DHT22;2665;53.112;7.358;2023-02-15T20:18:10;7.60;99.90
5286;DHT22;2665;53.112;7.358;2023-02-15T20:20:45;7.60;99.90
5286;DHT22;2665;53.112;7.358;2023-02-15T20:23:33;7.50;99.90
5286;DHT22;2665;53.112;7.358;2023-02-15T20:26:01;7.50;99.90
5286;DHT22;2665;53.112;7.358;2023-02-15T20:28:31;7.50;99.90
5286;DHT22;2665;53.112;7.358;2023-02-15T20:30:57;7.50;99.90
5286;DHT22;2665;53.112;7.358;2023-02-15T20:33:23;7.50;99.90
5286;DHT22;2665;53.112;7.358;2023-02-15T20:35:49;7.50;99.90
5286;DHT22;2665;53.112;7.358;2023-02-15T20:40:46;7.50;99.90
5286;DHT22;2665;53.112;7.358;2023-02-15T20:43:32;7.40;99.90
5286;DHT22;2665;53.112;7.358;2023-02-15T20:45:58;7.40;99.90
5286;DHT22;2665;53.112;7.358;2023-02-15T20:48:24;7.40;99.90
5286;DHT22;2665;53.112;7.358;2023-02-15T20:50:50;7.40;99.90
5286;DHT22;2665;53.112;7.358;2023-02-15T20:53:18;7.40;99.90
5286;DHT22;2665;53.112;7.358;2023-02-15T20:55:45;7.30;99.90
5286;DHT22;2665;53.112;7.358;2023-02-15T20:58:26;7.40;99.90
5286;DHT22;2665;53.112;7.358;2023-02-15T21:00:53;7.30;99.90
5286;DHT22;2665;53.112;7.358;2023-02-15T21:03:22;7.30;99.90
5286;DHT22;2665;53.112;7.358;2023-02-15T21:05:55;7.30;99.90
5286;DHT22;2665;53.112;7.358;2023-02-15T21:08:22;7.30;99.90
5286;DHT22;2665;53.112;7.358;2023-02-15T21:10:49;7.30;99.90
5286;DHT22;2665;53.112;7.358;2023-02-15T21:13:25;7.30;99.90
5286;DHT22;2665;53.112;7.358;2023-02-15T21:15:53;7.20;99.90
5286;DHT22;2665;53.112;7.358;2023-02-15T21:18:25;7.10;99.90
5286;DHT22;2665;53.112;7.358;2023-02-15T21:20:53;7.10;99.90
5286;DHT22;2665;53.112;7.358;2023-02-15T21:23:22;7.00;99.90
5286;DHT22;2665;53.112;7.358;2023-02-15T21:25:48;7.00;99.90
5286;DHT22;2665;53.112;7.358;2023-02-15T21:28:19;7.00;99.90
5286;DHT22;2665;53.112;7.358;2023-02-15T21:30:47;7.00;99.90
5286;DHT22;2665;53.112;7.358;2023-02-15T21:33:13;7.00;99.90
5286;DHT22;2665;53.112;7.358;2023-02-15T21:35:39;7.00;99.90
5286;DHT22;2665;53.112;7.358;2023-02-15T21:38:05;7.00;99.90
5286;DHT22;2665;53.112;7.358;2023-02-15T21:40:32;6.90;99.90
5286;DHT22;2665;53.112;7.358;2023-02-15T21:42:58;6.90;99.90
5286;DHT22;2665;53.112;7.358;2023-02-15T21:45:42;6.90;99.90
5286;DHT22;2665;53.112;7.358;2023-02-15T21:48:27;6.80;99.90
5286;DHT22;2665;53.112;7.358;2023-02-15T21:50:53;6.80;99.90
5286;DHT22;2665;53.112;7.358;2023-02-15T21:53:45;6.80;99.90
5286;DHT22;2665;53.112;7.358;2023-02-15T21:56:14;6.80;99.90
5286;DHT22;2665;53.112;7.358;2023-02-15T21:58:40;6.70;99.90
5286;DHT22;2665;53.112;7.358;2023-02-15T22:01:20;6.70;99.90
5286;DHT22;2665;53.112;7.358;2023-02-15T22:03:47;6.70;99.90
5286;DHT22;2665;53.112;7.358;2023-02-15T22:06:13;6.60;99.90
5286;DHT22;2665;53.112;7.358;2023-02-15T22:08:38;6.60;99.90
5286;DHT22;2665;53.112;7.358;2023-02-15T22:11:16;6.60;99.90
5286;DHT22;2665;53.112;7.358;2023-02-15T22:13:43;6.60;99.90
5286;DHT22;2665;53.112;7.358;2023-02-15T22:16:20;6.60;99.90
5286;DHT22;2665;53.112;7.358;2023-02-15T22:18:47;6.60;99.90
5286;DHT22;2665;53.112;7.358;2023-02-15T22:21:13;6.60;99.90
5286;DHT22;2665;53.112;7.358;2023-02-15T22:23:41;6.60;99.90
5286;DHT22;2665;53.112;7.358;2023-02-15T22:26:16;6.60;99.90
5286;DHT22;2665;53.112;7.358;2023-02-15T22:28:43;6.60;99.90
5286;DHT22;2665;53.112;7.358;2023-02-15T22:31:14;6.60;99.90
5286;DHT22;2665;53.112;7.358;2023-02-15T22:33:39;6.60;99.90
5286;DHT22;2665;53.112;7.358;2023-02-15T22:36:05;6.50;99.90
5286;DHT22;2665;53.112;7.358;2023-02-15T22:38:31;6.40;99.90
5286;DHT22;2665;53.112;7.358;2023-02-15T22:41:00;6.40;99.90
5286;DHT22;2665;53.112;7.358;2023-02-15T22:43:38;6.40;99.90
5286;DHT22;2665;53.112;7.358;2023-02-15T22:46:07;6.40;99.90
5286;DHT22;2665;53.112;7.358;2023-02-15T22:48:37;6.30;99.90
5286;DHT22;2665;53.112;7.358;2023-02-15T22:51:03;6.30;99.90
5286;DHT22;2665;53.112;7.358;2023-02-15T22:53:29;6.30;99.90
5286;DHT22;2665;53.112;7.358;2023-02-15T22:55:55;6.30;99.90
5286;DHT22;2665;53.112;7.358;2023-02-15T22:58:25;6.30;99.90
5286;DHT22;2665;53.112;7.358;2023-02-15T23:00:52;6.30;99.90
5286;DHT22;2665;53.112;7.358;2023-02-15T23:03:19;6.20;99.90
5286;DHT22;2665;53.112;7.358;2023-02-15T23:05:46;6.20;99.90
5286;DHT22;2665;53.112;7.358;2023-02-15T23:08:12;6.30;99.90
5286;DHT22;2665;53.112;7.358;2023-02-15T23:10:38;6.30;99.90
5286;DHT22;2665;53.112;7.358;2023-02-15T23:13:30;6.20;99.90
5286;DHT22;2665;53.112;7.358;2023-02-15T23:15:58;6.20;99.90
5286;DHT22;2665;53.112;7.358;2023-02-15T23:18:35;6.20;99.90
5286;DHT22;2665;53.112;7.358;2023-02-15T23:23:32;6.20;99.90
5286;DHT22;2665;53.112;7.358;2023-02-15T23:25:59;6.20;99.90
5286;DHT22;2665;53.112;7.358;2023-02-15T23:28:29;6.10;99.90
5286;DHT22;2665;53.112;7.358;2023-02-15T23:30:57;6.10;99.90
5286;DHT22;2665;53.112;7.358;2023-02-15T23:33:25;6.10;99.90
5286;DHT22;2665;53.112;7.358;2023-02-15T23:35:51;6.00;99.90
5286;DHT22;2665;53.112;7.358;2023-02-15T23:38:19;6.00;99.90
5286;DHT22;2665;53.112;7.358;2023-02-15T23:40:49;6.00;99.90
5286;DHT22;2665;53.112;7.358;2023-02-15T23:43:34;6.00;99.90
5286;DHT22;2665;53.112;7.358;2023-02-15T23:46:00;6.00;99.90
5286;DHT22;2665;53.112;7.358;2023-02-15T23:48:37;6.00;99.90
5286;DHT22;2665;53.112;7.358;2023-02-15T23:51:08;6.00;99.90
5286;DHT22;2665;53.112;7.358;2023-02-15T23:53:34;5.90;99.90
5286;DHT22;2665;53.112;7.358;2023-02-15T23:56:00;5.90;99.90
5286;DHT22;2665;53.112;7.358;2023-02-15T23:58:33;5.80;99.90
